Friedens, Pennsylvania
Current Conditions -  °F | °C
As of 8:54 PM on Monday 20 Oct 2014 (Local Time) from KJST Reporting Station
Broken Clouds Broken Clouds  
Wind Chill: 50°   Ceiling: 11000
Heat Index: 50°   Visibility: 10mi
Dew Point: 36°   Wind: 7mph
Humidity: 59%   Direction: 200°SSW
Pressure: 29.9"   Gusts: NA
Location:  40.05°N, 79°W
Report Text: KJST 210054Z AUTO 20006KT 10SM BKN110 10/02 A2990 RMK AO2 SLP131 T01000022
Loading
Personal Weather Stations






























Interactive Weather Map
Tropical Storm Tracking
New forecast layout! Learn more

10-Day Weather Forecast

Advertisements
Track Severe Weather on mobile